sensor_id;sensor_type;location;lat;lon;timestamp;pressure;altitude;pressure_sealevel;temperature;humidity
30875;BME280;17581;43.222;27.924;2023-03-23T00:01:47;100811.19;;;11.10;85.47
30875;BME280;17581;43.222;27.924;2023-03-23T00:04:15;100815.56;;;11.22;85.70
30875;BME280;17581;43.222;27.924;2023-03-23T00:06:41;100814.09;;;11.18;85.33
30875;BME280;17581;43.222;27.924;2023-03-23T00:09:07;100814.97;;;11.18;85.72
30875;BME280;17581;43.222;27.924;2023-03-23T00:11:33;100815.81;;;11.19;85.38
30875;BME280;17581;43.222;27.924;2023-03-23T00:14:00;100808.72;;;11.18;86.00
30875;BME280;17581;43.222;27.924;2023-03-23T00:16:31;100810.56;;;11.17;85.95
30875;BME280;17581;43.222;27.924;2023-03-23T00:19:23;100821.22;;;11.19;85.57
30875;BME280;17581;43.222;27.924;2023-03-23T00:21:49;100793.31;;;11.09;86.15
30875;BME280;17581;43.222;27.924;2023-03-23T00:24:18;100816.31;;;11.13;86.89
30875;BME280;17581;43.222;27.924;2023-03-23T00:26:46;100806.75;;;11.20;86.63
30875;BME280;17581;43.222;27.924;2023-03-23T00:29:16;100799.06;;;11.15;86.19
30875;BME280;17581;43.222;27.924;2023-03-23T00:31:43;100808.47;;;11.21;86.56
30875;BME280;17581;43.222;27.924;2023-03-23T00:34:16;100807.25;;;11.14;87.04
30875;BME280;17581;43.222;27.924;2023-03-23T00:36:50;100796.84;;;11.20;86.81
30875;BME280;17581;43.222;27.924;2023-03-23T00:39:16;100794.66;;;11.14;85.77
30875;BME280;17581;43.222;27.924;2023-03-23T00:41:43;100797.94;;;11.18;86.64
30875;BME280;17581;43.222;27.924;2023-03-23T00:44:09;100811.03;;;11.22;86.11
30875;BME280;17581;43.222;27.924;2023-03-23T00:46:35;100805.78;;;11.21;86.92
30875;BME280;17581;43.222;27.924;2023-03-23T00:49:13;100796.72;;;11.22;86.61
30875;BME280;17581;43.222;27.924;2023-03-23T00:51:40;100788.66;;;11.22;85.96
30875;BME280;17581;43.222;27.924;2023-03-23T00:54:06;100775.94;;;11.13;86.62
30875;BME280;17581;43.222;27.924;2023-03-23T00:56:32;100803.56;;;11.26;86.50
30875;BME280;17581;43.222;27.924;2023-03-23T00:58:58;100800.00;;;11.25;86.13
30875;BME280;17581;43.222;27.924;2023-03-23T01:01:23;100784.97;;;11.23;85.96
30875;BME280;17581;43.222;27.924;2023-03-23T01:03:49;100785.22;;;11.20;85.71
30875;BME280;17581;43.222;27.924;2023-03-23T01:06:15;100789.13;;;11.27;86.51
30875;BME280;17581;43.222;27.924;2023-03-23T01:08:41;100788.97;;;11.28;86.46
30875;BME280;17581;43.222;27.924;2023-03-23T01:11:12;100795.97;;;11.31;86.43
30875;BME280;17581;43.222;27.924;2023-03-23T01:13:38;100785.22;;;11.20;86.37
30875;BME280;17581;43.222;27.924;2023-03-23T01:16:05;100789.84;;;11.29;86.69
30875;BME280;17581;43.222;27.924;2023-03-23T01:18:30;100787.16;;;11.29;86.41
30875;BME280;17581;43.222;27.924;2023-03-23T01:20:56;100781.50;;;11.32;86.57
30875;BME280;17581;43.222;27.924;2023-03-23T01:23:21;100779.09;;;11.18;86.36
30875;BME280;17581;43.222;27.924;2023-03-23T01:25:47;100783.03;;;11.25;86.13
30875;BME280;17581;43.222;27.924;2023-03-23T01:28:12;100788.66;;;11.22;86.40
30875;BME280;17581;43.222;27.924;2023-03-23T01:30:38;100797.22;;;11.05;86.06
30875;BME280;17581;43.222;27.924;2023-03-23T01:33:03;100791.84;;;11.05;86.29
30875;BME280;17581;43.222;27.924;2023-03-23T01:35:29;100778.53;;;11.03;86.28
30875;BME280;17581;43.222;27.924;2023-03-23T01:37:54;100790.59;;;11.20;86.36
30875;BME280;17581;43.222;27.924;2023-03-23T01:40:20;100786.97;;;11.10;86.48
30875;BME280;17581;43.222;27.924;2023-03-23T01:42:45;100789.97;;;11.16;87.24
30875;BME280;17581;43.222;27.924;2023-03-23T01:45:37;100791.34;;;11.22;87.40
30875;BME280;17581;43.222;27.924;2023-03-23T01:50:35;100790.59;;;11.20;86.92
30875;BME280;17581;43.222;27.924;2023-03-23T01:53:04;100786.22;;;11.19;86.60
30875;BME280;17581;43.222;27.924;2023-03-23T01:55:34;100803.56;;;11.26;86.02
30875;BME280;17581;43.222;27.924;2023-03-23T01:58:02;100789.13;;;11.27;86.63
30875;BME280;17581;43.222;27.924;2023-03-23T02:00:28;100799.59;;;11.41;86.54
30875;BME280;17581;43.222;27.924;2023-03-23T02:02:56;100789.59;;;11.43;86.29
30875;BME280;17581;43.222;27.924;2023-03-23T02:05:28;100799.72;;;11.51;84.98
30875;BME280;17581;43.222;27.924;2023-03-23T02:07:58;100777.81;;;11.44;84.26
30875;BME280;17581;43.222;27.924;2023-03-23T02:10:31;100768.81;;;11.34;83.90
30875;BME280;17581;43.222;27.924;2023-03-23T02:12:58;100789.34;;;11.46;83.75
30875;BME280;17581;43.222;27.924;2023-03-23T02:15:29;100801.09;;;11.45;83.81
30875;BME280;17581;43.222;27.924;2023-03-23T02:18:01;100796.19;;;11.39;84.47
30875;BME280;17581;43.222;27.924;2023-03-23T02:20:44;100788.84;;;11.41;84.92
30875;BME280;17581;43.222;27.924;2023-03-23T02:37:52;100803.72;;;11.56;82.45
30875;BME280;17581;43.222;27.924;2023-03-23T02:40:30;100806.16;;;11.59;81.64
30875;BME280;17581;43.222;27.924;2023-03-23T02:42:58;100803.72;;;11.56;81.85
30875;BME280;17581;43.222;27.924;2023-03-23T02:45:27;100766.31;;;11.42;81.67
30875;BME280;17581;43.222;27.924;2023-03-23T02:48:02;100808.09;;;11.68;81.57
30875;BME280;17581;43.222;27.924;2023-03-23T02:50:42;100787.81;;;11.53;81.61
30875;BME280;17581;43.222;27.924;2023-03-23T02:53:10;100809.34;;;11.75;82.10
30875;BME280;17581;43.222;27.924;2023-03-23T02:55:41;100808.09;;;11.68;81.85
30875;BME280;17581;43.222;27.924;2023-03-23T02:58:10;100808.09;;;11.68;81.80
30875;BME280;17581;43.222;27.924;2023-03-23T03:00:36;100812.06;;;11.64;81.77
30875;BME280;17581;43.222;27.924;2023-03-23T03:03:03;100811.56;;;11.59;82.70
30875;BME280;17581;43.222;27.924;2023-03-23T03:05:58;100818.81;;;11.70;83.18
30875;BME280;17581;43.222;27.924;2023-03-23T03:08:49;100820.25;;;11.63;83.17
30875;BME280;17581;43.222;27.924;2023-03-23T03:11:18;100815.13;;;11.60;83.42
30875;BME280;17581;43.222;27.924;2023-03-23T03:14:13;100812.31;;;11.50;84.11
30875;BME280;17581;43.222;27.924;2023-03-23T03:16:46;100822.38;;;11.48;84.86
30875;BME280;17581;43.222;27.924;2023-03-23T03:19:16;100818.97;;;11.46;84.84
30875;BME280;17581;43.222;27.924;2023-03-23T03:21:46;100824.47;;;11.44;85.32
30875;BME280;17581;43.222;27.924;2023-03-23T03:24:15;100817.59;;;11.52;84.88
30875;BME280;17581;43.222;27.924;2023-03-23T03:26:45;100815.75;;;11.52;84.67
30875;BME280;17581;43.222;27.924;2023-03-23T03:29:13;100816.25;;;11.46;84.41
30875;BME280;17581;43.222;27.924;2023-03-23T03:31:43;100810.75;;;11.47;84.43
30875;BME280;17581;43.222;27.924;2023-03-23T03:34:14;100820.41;;;11.50;85.32
30875;BME280;17581;43.222;27.924;2023-03-23T03:36:45;100823.84;;;11.52;84.76
30875;BME280;17581;43.222;27.924;2023-03-23T03:39:13;100817.44;;;11.53;84.66
30875;BME280;17581;43.222;27.924;2023-03-23T03:41:40;100827.66;;;11.50;85.10
30875;BME280;17581;43.222;27.924;2023-03-23T03:44:07;100832.03;;;11.51;85.12
30875;BME280;17581;43.222;27.924;2023-03-23T03:46:41;100834.38;;;11.55;84.93
30875;BME280;17581;43.222;27.924;2023-03-23T03:49:08;100830.66;;;11.56;84.16
30875;BME280;17581;43.222;27.924;2023-03-23T03:51:34;100822.84;;;11.53;83.53
30875;BME280;17581;43.222;27.924;2023-03-23T03:54:00;100818.97;;;11.46;81.99
30875;BME280;17581;43.222;27.924;2023-03-23T03:56:26;100828.00;;;11.45;82.00
30875;BME280;17581;43.222;27.924;2023-03-23T03:58:52;100835.84;;;11.48;81.81
30875;BME280;17581;43.222;27.924;2023-03-23T04:01:22;100819.94;;;11.45;81.48
30875;BME280;17581;43.222;27.924;2023-03-23T04:03:49;100838.03;;;11.54;81.53
30875;BME280;17581;43.222;27.924;2023-03-23T04:06:16;100832.91;;;11.51;81.33
30875;BME280;17581;43.222;27.924;2023-03-23T04:08:42;100832.66;;;11.54;81.92
30875;BME280;17581;43.222;27.924;2023-03-23T04:11:09;100829.72;;;11.46;81.91
30875;BME280;17581;43.222;27.924;2023-03-23T04:13:36;100833.16;;;11.48;81.06
30875;BME280;17581;43.222;27.924;2023-03-23T04:16:02;100831.69;;;11.44;81.26
30875;BME280;17581;43.222;27.924;2023-03-23T04:18:27;100837.41;;;11.51;80.83
30875;BME280;17581;43.222;27.924;2023-03-23T04:20:53;100849.41;;;11.58;80.91
30875;BME280;17581;43.222;27.924;2023-03-23T04:23:25;100850.53;;;11.55;80.25
30875;BME280;17581;43.222;27.924;2023-03-23T04:25:51;100847.09;;;11.53;79.82
30875;BME280;17581;43.222;27.924;2023-03-23T04:28:19;100846.84;;;11.56;80.20
30875;BME280;17581;43.222;27.924;2023-03-23T04:30:49;100846.97;;;11.55;80.63
30875;BME280;17581;43.222;27.924;2023-03-23T04:33:19;100852.22;;;11.56;81.81
30875;BME280;17581;43.222;27.924;2023-03-23T04:35:46;100847.09;;;11.53;82.71
30875;BME280;17581;43.222;27.924;2023-03-23T04:38:14;100858.88;;;11.52;82.93
30875;BME280;17581;43.222;27.924;2023-03-23T04:40:43;100837.81;;;11.46;82.74
30875;BME280;17581;43.222;27.924;2023-03-23T04:43:09;100858.72;;;11.54;83.45
30875;BME280;17581;43.222;27.924;2023-03-23T04:45:38;100847.94;;;11.54;83.93
30875;BME280;17581;43.222;27.924;2023-03-23T04:48:07;100843.31;;;11.44;84.19
30875;BME280;17581;43.222;27.924;2023-03-23T04:50:33;100844.78;;;11.48;84.13
30875;BME280;17581;43.222;27.924;2023-03-23T04:53:00;100860.69;;;11.52;83.50
30875;BME280;17581;43.222;27.924;2023-03-23T04:55:30;100857.84;;;11.53;83.96
30875;BME280;17581;43.222;27.924;2023-03-23T04:57:56;100849.06;;;11.51;84.03
30875;BME280;17581;43.222;27.924;2023-03-23T05:00:25;100879.66;;;11.61;83.30
30875;BME280;17581;43.222;27.924;2023-03-23T05:02:51;100861.28;;;11.66;83.13
30875;BME280;17581;43.222;27.924;2023-03-23T05:05:18;100874.00;;;11.75;83.37
30875;BME280;17581;43.222;27.924;2023-03-23T05:07:45;100871.56;;;11.72;82.62
30875;BME280;17581;43.222;27.924;2023-03-23T05:10:11;100878.19;;;11.79;82.37
30875;BME280;17581;43.222;27.924;2023-03-23T05:12:38;100875.00;;;11.74;81.84
30875;BME280;17581;43.222;27.924;2023-03-23T05:15:05;100886.13;;;11.81;81.46
30875;BME280;17581;43.222;27.924;2023-03-23T05:17:32;100882.72;;;11.79;81.28
30875;BME280;17581;43.222;27.924;2023-03-23T05:19:59;100887.22;;;11.89;80.25
30875;BME280;17581;43.222;27.924;2023-03-23T05:22:27;100888.91;;;11.90;79.71
30875;BME280;17581;43.222;27.924;2023-03-23T05:24:53;100876.91;;;11.83;79.59
30875;BME280;17581;43.222;27.924;2023-03-23T05:27:19;100883.53;;;11.90;80.25
30875;BME280;17581;43.222;27.924;2023-03-23T05:29:46;100889.16;;;11.98;79.92
30875;BME280;17581;43.222;27.924;2023-03-23T05:32:16;100881.44;;;11.94;79.46
30875;BME280;17581;43.222;27.924;2023-03-23T05:34:42;100891.59;;;12.02;78.91
30875;BME280;17581;43.222;27.924;2023-03-23T05:37:09;100893.19;;;12.04;78.38
30875;BME280;17581;43.222;27.924;2023-03-23T05:39:37;100903.81;;;12.06;78.12
30875;BME280;17581;43.222;27.924;2023-03-23T05:42:03;100903.72;;;12.07;78.15
30875;BME280;17581;43.222;27.924;2023-03-23T05:44:29;100886.06;;;12.03;78.01
30875;BME280;17581;43.222;27.924;2023-03-23T05:46:55;100892.69;;;11.99;78.40
30875;BME280;17581;43.222;27.924;2023-03-23T05:49:21;100905.78;;;12.04;78.49
30875;BME280;17581;43.222;27.924;2023-03-23T05:51:47;100899.53;;;12.03;78.97
30875;BME280;17581;43.222;27.924;2023-03-23T05:54:13;100910.94;;;12.07;79.57
30875;BME280;17581;43.222;27.924;2023-03-23T05:56:40;100901.00;;;12.07;79.34
30875;BME280;17581;43.222;27.924;2023-03-23T05:59:05;100910.44;;;12.13;78.87
30875;BME280;17581;43.222;27.924;2023-03-23T06:01:31;100898.16;;;12.09;78.83
30875;BME280;17581;43.222;27.924;2023-03-23T06:03:57;100902.59;;;12.10;78.39
30875;BME280;17581;43.222;27.924;2023-03-23T06:06:26;100916.78;;;12.23;78.36
30875;BME280;17581;43.222;27.924;2023-03-23T06:08:53;100915.03;;;12.22;78.62
30875;BME280;17581;43.222;27.924;2023-03-23T06:11:19;100904.97;;;12.24;78.83
30875;BME280;17581;43.222;27.924;2023-03-23T06:13:45;100908.94;;;12.20;78.28
30875;BME280;17581;43.222;27.924;2023-03-23T06:16:10;100919.16;;;12.37;78.69
30875;BME280;17581;43.222;27.924;2023-03-23T06:18:36;100918.56;;;12.33;77.86
30875;BME280;17581;43.222;27.924;2023-03-23T06:21:04;100906.38;;;12.39;77.49
30875;BME280;17581;43.222;27.924;2023-03-23T06:23:30;100926.66;;;12.54;77.49
30875;BME280;17581;43.222;27.924;2023-03-23T06:30:53;100931.44;;;12.62;76.65
30875;BME280;17581;43.222;27.924;2023-03-23T06:33:19;100937.78;;;12.61;77.16
30875;BME280;17581;43.222;27.924;2023-03-23T06:38:19;100934.38;;;12.59;77.77
30875;BME280;17581;43.222;27.924;2023-03-23T06:43:20;100938.03;;;12.69;76.80
30875;BME280;17581;43.222;27.924;2023-03-23T06:45:46;100947.28;;;12.76;76.63
30875;BME280;17581;43.222;27.924;2023-03-23T06:48:11;100951.56;;;12.78;76.98
30875;BME280;17581;43.222;27.924;2023-03-23T06:50:37;100944.22;;;12.80;76.93
30875;BME280;17581;43.222;27.924;2023-03-23T06:53:03;100952.91;;;12.84;76.73
30875;BME280;17581;43.222;27.924;2023-03-23T06:55:56;100952.22;;;12.71;77.15
30875;BME280;17581;43.222;27.924;2023-03-23T06:58:22;100963.47;;;12.76;76.50
30875;BME280;17581;43.222;27.924;2023-03-23T07:03:30;100930.97;;;12.57;77.52
30875;BME280;17581;43.222;27.924;2023-03-23T07:08:31;100962.31;;;12.69;76.49
30875;BME280;17581;43.222;27.924;2023-03-23T07:10:57;100950.25;;;12.73;75.97
30875;BME280;17581;43.222;27.924;2023-03-23T07:13:23;100964.53;;;12.84;76.57
30875;BME280;17581;43.222;27.924;2023-03-23T07:15:48;100949.34;;;12.83;75.76
30875;BME280;17581;43.222;27.924;2023-03-23T07:18:16;100961.06;;;12.93;75.50
30875;BME280;17581;43.222;27.924;2023-03-23T07:20:41;100961.13;;;13.03;75.83
30875;BME280;17581;43.222;27.924;2023-03-23T07:23:07;100961.22;;;13.13;75.17
30875;BME280;17581;43.222;27.924;2023-03-23T07:28:08;100958.72;;;13.21;73.81
30875;BME280;17581;43.222;27.924;2023-03-23T07:30:34;100972.94;;;13.23;74.19
30875;BME280;17581;43.222;27.924;2023-03-23T07:32:59;100958.84;;;13.19;73.28
30875;BME280;17581;43.222;27.924;2023-03-23T07:35:29;100961.47;;;13.09;72.38
30875;BME280;17581;43.222;27.924;2023-03-23T07:37:55;100963.84;;;13.24;72.96
30875;BME280;17581;43.222;27.924;2023-03-23T07:40:21;100953.06;;;13.24;72.91
30875;BME280;17581;43.222;27.924;2023-03-23T07:42:52;100963.59;;;13.36;73.18
30875;BME280;17581;43.222;27.924;2023-03-23T07:45:18;100966.47;;;13.35;72.10
30875;BME280;17581;43.222;27.924;2023-03-23T07:50:14;100959.06;;;13.37;72.47
30875;BME280;17581;43.222;27.924;2023-03-23T07:52:40;100967.53;;;13.53;72.43
30875;BME280;17581;43.222;27.924;2023-03-23T07:55:09;100966.88;;;13.60;72.79
30875;BME280;17581;43.222;27.924;2023-03-23T07:57:34;100968.34;;;13.74;72.05
30875;BME280;17581;43.222;27.924;2023-03-23T08:00:00;100957.81;;;13.71;71.13
30875;BME280;17581;43.222;27.924;2023-03-23T08:02:28;100974.38;;;13.87;71.34
30875;BME280;17581;43.222;27.924;2023-03-23T08:04:53;100973.53;;;13.96;71.73
30875;BME280;17581;43.222;27.924;2023-03-23T08:07:21;100984.41;;;14.06;71.19
30875;BME280;17581;43.222;27.924;2023-03-23T08:09:47;100965.56;;;13.95;71.67
30875;BME280;17581;43.222;27.924;2023-03-23T08:12:13;100977.47;;;13.83;70.37
30875;BME280;17581;43.222;27.924;2023-03-23T08:14:39;100978.38;;;13.93;69.50
30875;BME280;17581;43.222;27.924;2023-03-23T08:17:07;100983.78;;;13.93;68.49
30875;BME280;17581;43.222;27.924;2023-03-23T08:19:32;100986.47;;;13.93;68.87
30875;BME280;17581;43.222;27.924;2023-03-23T08:22:05;100980.75;;;13.86;68.80
30875;BME280;17581;43.222;27.924;2023-03-23T08:24:31;100981.47;;;13.79;69.06
30875;BME280;17581;43.222;27.924;2023-03-23T08:26:58;100990.88;;;13.84;69.56
30875;BME280;17581;43.222;27.924;2023-03-23T08:29:24;100991.25;;;13.80;68.99
30875;BME280;17581;43.222;27.924;2023-03-23T08:31:50;100986.28;;;13.75;69.20
30875;BME280;17581;43.222;27.924;2023-03-23T08:34:15;100976.72;;;13.71;69.12
30875;BME280;17581;43.222;27.924;2023-03-23T08:36:41;100983.97;;;13.71;68.84
30875;BME280;17581;43.222;27.924;2023-03-23T08:39:09;100985.22;;;13.57;68.34
30875;BME280;17581;43.222;27.924;2023-03-23T08:41:35;100991.53;;;13.46;68.75
30875;BME280;17581;43.222;27.924;2023-03-23T08:44:00;100994.41;;;13.45;69.34
30875;BME280;17581;43.222;27.924;2023-03-23T08:46:32;100990.41;;;13.49;68.98
30875;BME280;17581;43.222;27.924;2023-03-23T08:48:58;100997.97;;;13.55;68.93
30875;BME280;17581;43.222;27.924;2023-03-23T08:51:25;100995.59;;;13.61;68.62
30875;BME280;17581;43.222;27.924;2023-03-23T08:54:11;100989.47;;;13.59;68.12
30875;BME280;17581;43.222;27.924;2023-03-23T08:56:59;100989.06;;;13.64;68.16
30875;BME280;17581;43.222;27.924;2023-03-23T08:59:25;100994.41;;;13.75;68.40
30875;BME280;17581;43.222;27.924;2023-03-23T09:01:51;100994.28;;;13.86;67.95
30875;BME280;17581;43.222;27.924;2023-03-23T09:04:17;100999.59;;;13.97;68.23
30875;BME280;17581;43.222;27.924;2023-03-23T09:06:43;100982.13;;;14.11;67.61
30875;BME280;17581;43.222;27.924;2023-03-23T09:09:09;100994.41;;;14.25;67.74
30875;BME280;17581;43.222;27.924;2023-03-23T09:11:36;100986.47;;;14.33;67.56
30875;BME280;17581;43.222;27.924;2023-03-23T09:14:03;100982.63;;;14.45;67.22
30875;BME280;17581;43.222;27.924;2023-03-23T09:16:29;100983.22;;;14.58;67.00
30875;BME280;17581;43.222;27.924;2023-03-23T09:18:55;100987.78;;;14.67;66.98
30875;BME280;17581;43.222;27.924;2023-03-23T09:21:23;100969.97;;;14.64;65.26
30875;BME280;17581;43.222;27.924;2023-03-23T09:23:48;100976.50;;;14.62;63.94
30875;BME280;17581;43.222;27.924;2023-03-23T09:26:14;100986.22;;;14.55;64.29
30875;BME280;17581;43.222;27.924;2023-03-23T09:28:40;100974.38;;;14.37;67.87
30875;BME280;17581;43.222;27.924;2023-03-23T09:31:05;100985.81;;;14.00;69.83
30875;BME280;17581;43.222;27.924;2023-03-23T09:33:31;100968.97;;;13.87;70.65
30875;BME280;17581;43.222;27.924;2023-03-23T09:36:00;100989.44;;;13.50;71.27
30875;BME280;17581;43.222;27.924;2023-03-23T09:38:27;100967.34;;;13.15;71.94
30875;BME280;17581;43.222;27.924;2023-03-23T09:44:27;100993.97;;;12.87;74.35
30875;BME280;17581;43.222;27.924;2023-03-23T09:47:00;100992.38;;;12.85;75.13
30875;BME280;17581;43.222;27.924;2023-03-23T09:49:42;100990.88;;;12.92;75.93
30875;BME280;17581;43.222;27.924;2023-03-23T09:52:17;100981.66;;;12.94;75.68
30875;BME280;17581;43.222;27.924;2023-03-23T09:54:46;100981.88;;;13.02;75.26
30875;BME280;17581;43.222;27.924;2023-03-23T09:57:19;100983.28;;;13.18;74.98
30875;BME280;17581;43.222;27.924;2023-03-23T09:59:55;100987.16;;;13.25;75.48
30875;BME280;17581;43.222;27.924;2023-03-23T10:02:29;100981.03;;;13.23;75.13
30875;BME280;17581;43.222;27.924;2023-03-23T10:07:40;100975.28;;;13.37;75.48
30875;BME280;17581;43.222;27.924;2023-03-23T10:10:12;100951.13;;;13.35;74.95
30875;BME280;17581;43.222;27.924;2023-03-23T10:12:51;100970.59;;;13.69;73.79
30875;BME280;17581;43.222;27.924;2023-03-23T10:15:27;100973.47;;;13.77;74.12
30875;BME280;17581;43.222;27.924;2023-03-23T10:28:54;100969.03;;;14.16;71.17
30875;BME280;17581;43.222;27.924;2023-03-23T10:31:27;100954.81;;;14.24;70.70
30875;BME280;17581;43.222;27.924;2023-03-23T10:33:56;100970.53;;;14.49;70.21
30875;BME280;17581;43.222;27.924;2023-03-23T10:36:35;100959.13;;;14.36;69.59
30875;BME280;17581;43.222;27.924;2023-03-23T10:39:12;100961.50;;;14.29;69.59
30875;BME280;17581;43.222;27.924;2023-03-23T10:41:39;100964.66;;;14.25;69.91
30875;BME280;17581;43.222;27.924;2023-03-23T10:44:16;100971.97;;;14.34;69.59
30875;BME280;17581;43.222;27.924;2023-03-23T10:49:19;100956.22;;;14.18;68.67
30875;BME280;17581;43.222;27.924;2023-03-23T10:52:00;100961.06;;;14.24;69.00
30875;BME280;17581;43.222;27.924;2023-03-23T10:54:35;100954.50;;;14.07;69.37
30875;BME280;17581;43.222;27.924;2023-03-23T10:57:12;100949.81;;;14.09;68.65
30875;BME280;17581;43.222;27.924;2023-03-23T10:59:40;100949.50;;;14.03;70.31
30875;BME280;17581;43.222;27.924;2023-03-23T11:02:15;100936.69;;;14.05;69.95
30875;BME280;17581;43.222;27.924;2023-03-23T11:04:45;100943.38;;;14.10;69.59
30875;BME280;17581;43.222;27.924;2023-03-23T11:07:26;100946.56;;;14.15;69.55
30875;BME280;17581;43.222;27.924;2023-03-23T11:09:57;100949.63;;;14.01;70.16
30875;BME280;17581;43.222;27.924;2023-03-23T11:12:33;100933.69;;;13.98;70.76
30875;BME280;17581;43.222;27.924;2023-03-23T11:15:10;100938.84;;;14.11;69.42
30875;BME280;17581;43.222;27.924;2023-03-23T11:17:40;100941.41;;;14.12;69.09
30875;BME280;17581;43.222;27.924;2023-03-23T11:20:11;100940.63;;;13.91;68.55
30875;BME280;17581;43.222;27.924;2023-03-23T11:22:37;100919.28;;;13.79;68.29
30875;BME280;17581;43.222;27.924;2023-03-23T11:25:05;100938.75;;;13.82;68.15
30875;BME280;17581;43.222;27.924;2023-03-23T11:27:32;100926.66;;;13.77;68.32
30875;BME280;17581;43.222;27.924;2023-03-23T11:30:08;100931.19;;;13.76;68.74
30875;BME280;17581;43.222;27.924;2023-03-23T11:32:34;100942.47;;;13.81;69.17
30875;BME280;17581;43.222;27.924;2023-03-23T11:35:04;100941.19;;;13.76;68.63
30875;BME280;17581;43.222;27.924;2023-03-23T11:37:43;100936.41;;;13.58;69.53
30875;BME280;17581;43.222;27.924;2023-03-23T11:42:46;100940.13;;;13.67;70.36
30875;BME280;17581;43.222;27.924;2023-03-23T11:58:36;100921.28;;;13.46;71.57
30875;BME280;17581;43.222;27.924;2023-03-23T12:06:28;100925.94;;;13.75;72.18
30875;BME280;17581;43.222;27.924;2023-03-23T12:11:42;100924.03;;;13.56;72.54
30875;BME280;17581;43.222;27.924;2023-03-23T12:48:41;100916.44;;;12.69;74.75
30875;BME280;17581;43.222;27.924;2023-03-23T13:04:46;100902.72;;;12.40;77.39
30875;BME280;17581;43.222;27.924;2023-03-23T13:07:21;100903.38;;;12.53;77.19
30875;BME280;17581;43.222;27.924;2023-03-23T13:10:02;100906.28;;;12.61;76.71
30875;BME280;17581;43.222;27.924;2023-03-23T13:12:29;100903.56;;;12.61;76.65
30875;BME280;17581;43.222;27.924;2023-03-23T13:15:01;100899.84;;;12.73;76.27
30875;BME280;17581;43.222;27.924;2023-03-23T13:17:44;100895.28;;;12.94;75.83
30875;BME280;17581;43.222;27.924;2023-03-23T13:23:25;100889.81;;;13.05;73.95
30875;BME280;17581;43.222;27.924;2023-03-23T13:25:56;100880.69;;;13.27;73.65
30875;BME280;17581;43.222;27.924;2023-03-23T13:28:30;100896.09;;;13.46;73.28
30875;BME280;17581;43.222;27.924;2023-03-23T13:31:11;100883.50;;;13.56;72.93
30875;BME280;17581;43.222;27.924;2023-03-23T13:33:38;100862.44;;;13.50;71.84
30875;BME280;17581;43.222;27.924;2023-03-23T13:36:07;100875.81;;;13.61;70.76
30875;BME280;17581;43.222;27.924;2023-03-23T13:38:34;100875.31;;;13.86;70.75
30875;BME280;17581;43.222;27.924;2023-03-23T13:41:10;100873.31;;;13.88;69.81
30875;BME280;17581;43.222;27.924;2023-03-23T13:43:38;100870.91;;;13.95;68.67
30875;BME280;17581;43.222;27.924;2023-03-23T13:49:02;100877.84;;;13.69;67.21
30875;BME280;17581;43.222;27.924;2023-03-23T13:51:35;100864.91;;;13.72;67.98
30875;BME280;17581;43.222;27.924;2023-03-23T13:54:19;100873.59;;;13.76;68.88
30875;BME280;17581;43.222;27.924;2023-03-23T14:01:52;100866.25;;;14.06;68.70
30875;BME280;17581;43.222;27.924;2023-03-23T14:04:19;100870.22;;;14.02;68.20
30875;BME280;17581;43.222;27.924;2023-03-23T14:06:47;100880.06;;;14.03;68.74
30875;BME280;17581;43.222;27.924;2023-03-23T14:09:36;100877.78;;;14.08;68.04
30875;BME280;17581;43.222;27.924;2023-03-23T14:12:05;100879.50;;;14.09;67.96
30875;BME280;17581;43.222;27.924;2023-03-23T14:14:45;100877.34;;;14.03;67.59
30875;BME280;17581;43.222;27.924;2023-03-23T14:17:16;100884.72;;;14.01;68.10
30875;BME280;17581;43.222;27.924;2023-03-23T14:19:47;100879.75;;;13.87;68.07
30875;BME280;17581;43.222;27.924;2023-03-23T14:22:19;100879.72;;;13.78;68.26
30875;BME280;17581;43.222;27.924;2023-03-23T14:24:45;100884.13;;;13.79;68.60
30875;BME280;17581;43.222;27.924;2023-03-23T14:27:20;100877.81;;;13.59;69.47
30875;BME280;17581;43.222;27.924;2023-03-23T14:29:46;100889.47;;;13.59;69.62
30875;BME280;17581;43.222;27.924;2023-03-23T14:32:23;100889.19;;;13.53;69.85
30875;BME280;17581;43.222;27.924;2023-03-23T14:34:51;100899.94;;;13.43;70.10
30875;BME280;17581;43.222;27.924;2023-03-23T14:37:17;100893.09;;;13.39;70.84
30875;BME280;17581;43.222;27.924;2023-03-23T14:39:47;100891.22;;;13.30;71.21
30875;BME280;17581;43.222;27.924;2023-03-23T14:42:16;100898.91;;;13.35;71.50
30875;BME280;17581;43.222;27.924;2023-03-23T14:44:48;100911.25;;;13.28;72.01
30875;BME280;17581;43.222;27.924;2023-03-23T14:47:33;100909.94;;;13.22;72.03
30875;BME280;17581;43.222;27.924;2023-03-23T14:50:01;100904.13;;;13.17;72.34
30875;BME280;17581;43.222;27.924;2023-03-23T14:52:34;100906.59;;;13.09;72.89
30875;BME280;17581;43.222;27.924;2023-03-23T14:55:17;100903.91;;;13.09;73.14
30875;BME280;17581;43.222;27.924;2023-03-23T14:57:43;100910.16;;;13.09;73.23
30875;BME280;17581;43.222;27.924;2023-03-23T15:00:15;100898.97;;;12.93;73.72
30875;BME280;17581;43.222;27.924;2023-03-23T15:02:44;100904.31;;;12.84;74.36
30875;BME280;17581;43.222;27.924;2023-03-23T15:05:17;100894.09;;;12.87;74.62
30875;BME280;17581;43.222;27.924;2023-03-23T15:07:45;100910.50;;;12.95;74.65
30875;BME280;17581;43.222;27.924;2023-03-23T15:10:17;100906.81;;;12.96;74.64
30875;BME280;17581;43.222;27.924;2023-03-23T15:12:45;100899.97;;;12.92;74.88